KBAD/BAD METAR and TAF weather

Enter ICAO airport designator
Station Type Date Time Source
KBAD METAR 2022/06/30 12:56 UTC NOAA

KBAD 301256Z AUTO 12004KT 10SM CLR 24/21 A3009 RMK AO2 SLP192 T02380211


Station Type Date Time Source
KBAD Decoded METAR 2022/06/30 12:56 UTC NOAA

Barksdale Air Force Base, LA, United States (KBAD) 32-30N 093-40W
Jun 30, 2022 - 08:56 AM EDT / 2022.06.30 1256 UTC
Wind: from the ESE (120 degrees) at 5 MPH (4 KT):0
Visibility: 10 mile(s):0
Sky conditions: clear
Temperature: 74.8 F (23.8 C)
Dew Point: 70.0 F (21.1 C)
Relative Humidity: 84%
Pressure (altimeter): 30.09 in. Hg (1018 hPa)
ob: KBAD 301256Z AUTO 12004KT 10SM CLR 24/21 A3009 RMK AO2 SLP192 T02380211
cycle: 13

Station Type Date Time Source
KBAD TAF 2022/06/30 12:03 UTC NOAA

TAF TAF KBAD 301200Z 3012/0118 12005KT 9999 FEW050 SCT250 QNH2997INS
BECMG 3021/3022 16008KT 9999 VCTS BKN030CB QNH2996INS
BECMG 0101/0102 17006KT 9999 NSW SCT040 BKN200 QNH2996INS TX34/3021Z TN22/3012Z

Example: see airport list